createdAt,value
2018-06-18T00:00:08.701Z,0
2018-06-18T00:01:13.706Z,0
2018-06-18T00:02:18.581Z,0
2018-06-18T00:03:24.014Z,0
2018-06-18T00:04:29.948Z,0
2018-06-18T00:05:35.110Z,0
2018-06-18T00:06:40.400Z,0
2018-06-18T00:07:45.271Z,0
2018-06-18T00:08:50.701Z,0
2018-06-18T00:09:56.103Z,0
2018-06-18T00:11:01.257Z,0
2018-06-18T00:12:05.837Z,0
2018-06-18T00:13:10.947Z,0
2018-06-18T00:14:16.108Z,0
2018-06-18T00:15:21.265Z,0
2018-06-18T00:16:26.203Z,0
2018-06-18T00:17:30.799Z,0
2018-06-18T00:18:36.891Z,0
2018-06-18T00:19:42.322Z,0
2018-06-18T00:20:47.758Z,0
2018-06-18T00:21:53.291Z,0
2018-06-18T00:22:58.156Z,0
2018-06-18T00:24:03.039Z,0
2018-06-18T00:25:08.148Z,0
2018-06-18T00:26:13.616Z,0
2018-06-18T00:27:18.766Z,0
2018-06-18T00:28:24.554Z,0
2018-06-18T00:29:29.712Z,0
2018-06-18T00:30:35.664Z,0
2018-06-18T00:31:41.113Z,0
2018-06-18T00:32:46.274Z,0
2018-06-18T00:33:51.682Z,0
2018-06-18T00:34:56.837Z,0
2018-06-18T00:36:01.999Z,0
2018-06-18T00:37:07.110Z,0
2018-06-18T00:38:12.255Z,0
2018-06-18T00:39:17.688Z,0
2018-06-18T00:40:23.369Z,0
2018-06-18T00:41:28.241Z,0
2018-06-18T00:42:33.499Z,0
2018-06-18T00:43:38.651Z,0
2018-06-18T00:44:44.081Z,0
2018-06-18T00:45:49.576Z,0
2018-06-18T00:46:55.007Z,0
2018-06-18T00:48:00.436Z,0
2018-06-18T00:49:06.232Z,0
2018-06-18T00:50:11.099Z,0
2018-06-18T00:51:16.530Z,0
2018-06-18T00:52:22.313Z,0
2018-06-18T00:53:27.747Z,0
2018-06-18T00:54:33.425Z,0
2018-06-18T00:55:38.895Z,0
2018-06-18T00:56:44.047Z,0
2018-06-18T00:57:49.269Z,0
2018-06-18T00:58:54.420Z,0
2018-06-18T00:59:59.858Z,0
2018-06-18T01:01:05.282Z,0
2018-06-18T01:02:10.434Z,0
2018-06-18T01:03:15.345Z,0
2018-06-18T01:04:19.901Z,0
2018-06-18T01:05:24.775Z,0
2018-06-18T01:06:30.928Z,0
2018-06-18T01:07:35.792Z,0
2018-06-18T01:08:40.936Z,0
2018-06-18T01:09:46.026Z,0
2018-06-18T01:10:51.461Z,0
2018-06-18T01:11:56.364Z,0
2018-06-18T01:13:01.854Z,0
2018-06-18T01:14:06.188Z,0
2018-06-18T01:15:11.063Z,0
2018-06-18T01:16:15.909Z,0
2018-06-18T01:17:20.787Z,0
2018-06-18T01:18:26.318Z,0
2018-06-18T01:19:30.910Z,0
2018-06-18T01:20:35.776Z,0
2018-06-18T01:21:41.211Z,0
2018-06-18T01:22:46.658Z,0
2018-06-18T01:23:51.818Z,0
2018-06-18T01:24:57.501Z,0
2018-06-18T01:26:02.653Z,0
2018-06-18T01:27:07.806Z,0
2018-06-18T01:28:13.037Z,0
2018-06-18T01:29:18.199Z,0
2018-06-18T01:30:23.097Z,0
2018-06-18T01:31:28.324Z,0
2018-06-18T01:32:33.535Z,0
2018-06-18T01:33:39.315Z,0
2018-06-18T01:34:44.750Z,0
2018-06-18T01:35:50.184Z,0
2018-06-18T01:36:55.615Z,0
2018-06-18T01:38:01.059Z,0
2018-06-18T01:39:05.716Z,0
2018-06-18T01:40:11.146Z,0
2018-06-18T01:41:16.581Z,0
2018-06-18T01:42:22.016Z,0
2018-06-18T01:43:27.341Z,0
2018-06-18T01:44:32.485Z,0
2018-06-18T01:45:38.036Z,0
2018-06-18T01:46:42.620Z,0
2018-06-18T01:47:47.783Z,0
2018-06-18T01:48:53.047Z,0
2018-06-18T01:49:58.500Z,0
2018-06-18T01:51:02.803Z,0
2018-06-18T01:52:07.356Z,0
2018-06-18T01:53:11.949Z,0
2018-06-18T01:54:17.103Z,0
2018-06-18T01:55:22.654Z,0
2018-06-18T01:56:28.086Z,0
2018-06-18T01:57:33.250Z,0
2018-06-18T01:58:38.123Z,0
2018-06-18T01:59:43.274Z,0
2018-06-18T02:00:48.972Z,0
2018-06-18T02:01:53.856Z,0
2018-06-18T02:02:59.017Z,0
2018-06-18T02:04:04.235Z,0
2018-06-18T02:05:09.665Z,0
2018-06-18T02:06:14.836Z,0
2018-06-18T02:07:20.056Z,0
2018-06-18T02:08:25.209Z,0
2018-06-18T02:09:31.189Z,0
2018-06-18T02:10:36.634Z,0
2018-06-18T02:11:42.090Z,0
2018-06-18T02:12:46.931Z,0
2018-06-18T02:13:52.092Z,0
2018-06-18T02:14:57.266Z,0
2018-06-18T02:16:02.668Z,0
2018-06-18T02:17:07.301Z,0
2018-06-18T02:18:12.170Z,0
2018-06-18T02:19:16.918Z,0
2018-06-18T02:20:22.381Z,0
2018-06-18T02:21:27.498Z,0
2018-06-18T02:22:32.929Z,0
2018-06-18T02:23:37.794Z,0
2018-06-18T02:24:43.673Z,0
2018-06-18T02:25:48.548Z,0
2018-06-18T02:26:53.727Z,0
2018-06-18T02:27:59.294Z,0
2018-06-18T02:29:03.889Z,0
2018-06-18T02:30:09.036Z,0
2018-06-18T02:31:14.816Z,0
2018-06-18T02:32:19.690Z,0
2018-06-18T02:33:25.421Z,0
2018-06-18T02:34:31.265Z,0
2018-06-18T02:35:36.417Z,0
2018-06-18T02:36:42.249Z,0
2018-06-18T02:37:47.408Z,0
2018-06-18T02:38:52.867Z,0
2018-06-18T02:39:58.431Z,0
2018-06-18T02:41:03.023Z,0
2018-06-18T02:42:07.900Z,0
2018-06-18T02:43:13.737Z,0
2018-06-18T02:44:19.188Z,0
2018-06-18T02:45:25.173Z,0
2018-06-18T02:46:30.040Z,0
2018-06-18T02:47:35.194Z,0
2018-06-18T02:48:41.275Z,0
2018-06-18T02:49:46.725Z,0
2018-06-18T02:50:52.155Z,0
2018-06-18T02:51:57.323Z,0
2018-06-18T02:53:02.203Z,0
2018-06-18T02:54:06.522Z,0
2018-06-18T02:55:11.685Z,0
2018-06-18T02:56:17.138Z,0
2018-06-18T02:57:22.015Z,0
2018-06-18T02:58:27.502Z,0
2018-06-18T02:59:32.672Z,0
2018-06-18T03:00:37.942Z,0
2018-06-18T03:01:43.407Z,0
2018-06-18T03:02:48.854Z,0
2018-06-18T03:03:54.703Z,0
2018-06-18T03:04:59.871Z,0
2018-06-18T03:06:04.743Z,0
2018-06-18T03:07:09.690Z,0
2018-06-18T03:08:14.560Z,0
2018-06-18T03:09:20.003Z,0
2018-06-18T03:10:25.238Z,0
2018-06-18T03:11:30.409Z,0
2018-06-18T03:12:35.700Z,0
2018-06-18T03:13:40.575Z,0
2018-06-18T03:14:45.755Z,0
2018-06-18T03:15:51.596Z,0
2018-06-18T03:16:56.743Z,0
2018-06-18T03:18:01.343Z,0
2018-06-18T03:19:06.349Z,0
2018-06-18T03:20:11.220Z,0
2018-06-18T03:21:16.659Z,0
2018-06-18T03:22:22.056Z,0
2018-06-18T03:23:26.933Z,0
2018-06-18T03:24:32.455Z,0
2018-06-18T03:25:37.333Z,0
2018-06-18T03:26:42.476Z,0
2018-06-18T03:27:48.161Z,0
2018-06-18T03:28:53.311Z,0
2018-06-18T03:29:58.751Z,0
2018-06-18T03:31:03.973Z,0
2018-06-18T03:32:08.561Z,0
2018-06-18T03:33:13.445Z,0
2018-06-18T03:34:19.129Z,0
2018-06-18T03:35:24.577Z,0
2018-06-18T03:36:29.738Z,0
2018-06-18T03:37:34.934Z,0
2018-06-18T03:38:40.088Z,0
2018-06-18T03:39:45.937Z,0
2018-06-18T03:40:51.371Z,0
2018-06-18T03:41:56.523Z,6
2018-06-18T03:43:01.919Z,6
2018-06-18T03:44:06.803Z,6
2018-06-18T03:45:11.677Z,6
2018-06-18T03:46:16.797Z,6
2018-06-18T03:47:22.227Z,6
2018-06-18T03:48:27.394Z,6
2018-06-18T03:49:32.827Z,6
2018-06-18T03:50:38.256Z,6
2018-06-18T03:51:43.665Z,6
2018-06-18T03:52:48.823Z,24
2018-06-18T03:53:54.249Z,24
2018-06-18T03:54:59.759Z,24
2018-06-18T03:56:04.335Z,24
2018-06-18T03:57:09.229Z,24
2018-06-18T03:58:14.349Z,24
2018-06-18T03:59:19.781Z,24
2018-06-18T04:01:45.444Z,24
2018-06-18T04:02:50.873Z,24
2018-06-18T04:03:56.556Z,24
2018-06-18T04:05:01.723Z,24
2018-06-18T04:06:07.168Z,24
2018-06-18T04:07:12.580Z,24
2018-06-18T04:08:17.749Z,24
2018-06-18T04:09:23.224Z,40
2018-06-18T04:10:28.835Z,40
2018-06-18T04:11:33.723Z,40
2018-06-18T04:12:38.865Z,40
2018-06-18T04:13:44.301Z,40
2018-06-18T04:14:49.454Z,40
2018-06-18T04:15:55.006Z,40
2018-06-18T04:17:00.439Z,40
2018-06-18T04:18:05.873Z,40
2018-06-18T04:19:11.657Z,40
2018-06-18T04:20:16.810Z,40
2018-06-18T04:21:21.981Z,40
2018-06-18T04:22:27.759Z,55
2018-06-18T04:23:32.635Z,55
2018-06-18T04:24:38.606Z,55
2018-06-18T04:25:44.056Z,55
2018-06-18T04:26:49.493Z,55
2018-06-18T04:27:54.647Z,55
2018-06-18T04:29:00.077Z,55
2018-06-18T04:30:05.232Z,55
2018-06-18T04:31:09.961Z,48
2018-06-18T04:32:14.560Z,48
2018-06-18T04:33:19.719Z,48
2018-06-18T04:34:25.116Z,48
2018-06-18T04:35:29.416Z,48
2018-06-18T04:36:34.545Z,48
2018-06-18T04:37:40.301Z,48
2018-06-18T04:38:45.348Z,48
2018-06-18T04:39:51.137Z,48
2018-06-18T04:40:56.013Z,48
2018-06-18T04:42:00.878Z,48
2018-06-18T04:43:05.636Z,48
2018-06-18T04:44:11.080Z,48
2018-06-18T04:45:16.244Z,48
2018-06-18T04:46:22.023Z,48
2018-06-18T04:47:27.185Z,64
2018-06-18T04:48:32.694Z,48
2018-06-18T04:49:37.848Z,48
2018-06-18T04:50:43.011Z,48
2018-06-18T04:51:48.318Z,48
2018-06-18T04:52:53.775Z,64
2018-06-18T04:53:59.253Z,64
2018-06-18T04:55:04.507Z,64
2018-06-18T04:56:09.377Z,64
2018-06-18T04:57:14.525Z,64
2018-06-18T04:58:20.207Z,64
2018-06-18T04:59:25.660Z,64
2018-06-18T05:00:30.388Z,64
2018-06-18T05:01:35.842Z,64
2018-06-18T05:02:41.017Z,64
2018-06-18T05:03:46.135Z,64
2018-06-18T05:04:51.569Z,64
2018-06-18T05:05:56.462Z,64
2018-06-18T05:07:01.872Z,64
2018-06-18T05:08:06.486Z,48
2018-06-18T05:09:11.351Z,48
2018-06-18T05:10:16.766Z,48
2018-06-18T05:11:21.671Z,48
2018-06-18T05:12:27.385Z,55
2018-06-18T05:13:32.815Z,55
2018-06-18T05:14:38.255Z,55
2018-06-18T05:15:43.656Z,48
2018-06-18T05:16:48.824Z,48
2018-06-18T05:17:54.261Z,48
2018-06-18T05:18:59.422Z,48
2018-06-18T05:20:04.288Z,48
2018-06-18T05:21:09.741Z,48
2018-06-18T05:22:15.151Z,48
2018-06-18T05:23:20.581Z,48
2018-06-18T05:24:41.011Z,48
2018-06-18T05:25:45.886Z,48
2018-06-18T05:26:51.338Z,48
2018-06-18T05:27:57.120Z,48
2018-06-18T05:29:01.700Z,48
2018-06-18T05:30:06.072Z,48
2018-06-18T05:31:11.875Z,48
2018-06-18T05:32:17.309Z,48
2018-06-18T05:33:22.476Z,48
2018-06-18T05:34:28.233Z,64
2018-06-18T05:35:33.666Z,64
2018-06-18T05:36:39.454Z,64
2018-06-18T05:37:44.615Z,64
2018-06-18T05:38:49.767Z,64
2018-06-18T05:39:55.698Z,64
2018-06-18T05:41:01.133Z,80
2018-06-18T05:42:05.467Z,80
2018-06-18T05:43:10.314Z,80
2018-06-18T05:44:15.767Z,80
2018-06-18T05:45:20.947Z,80
2018-06-18T05:46:27.106Z,80
2018-06-18T05:47:32.546Z,64
2018-06-18T05:48:38.052Z,64
2018-06-18T05:49:43.490Z,64
2018-06-18T05:50:48.649Z,64
2018-06-18T05:51:54.050Z,64
2018-06-18T05:52:59.214Z,64
2018-06-18T05:54:04.113Z,64
2018-06-18T05:55:09.808Z,64
2018-06-18T05:56:14.953Z,64
2018-06-18T05:57:20.104Z,80
2018-06-18T05:58:25.694Z,80
2018-06-18T05:59:30.900Z,80
2018-06-18T06:00:36.598Z,80
2018-06-18T06:01:41.747Z,64
2018-06-18T06:02:47.213Z,64
2018-06-18T06:03:52.329Z,48
2018-06-18T06:04:57.768Z,48
2018-06-18T06:06:03.390Z,48
2018-06-18T06:07:08.040Z,48
2018-06-18T06:08:13.195Z,48
2018-06-18T06:09:18.626Z,48
2018-06-18T06:10:24.479Z,48
2018-06-18T06:11:29.635Z,64
2018-06-18T06:12:34.227Z,80
2018-06-18T06:13:39.656Z,96
2018-06-18T06:14:44.823Z,72
2018-06-18T06:15:50.340Z,72
2018-06-18T06:16:55.824Z,72
2018-06-18T06:18:01.591Z,104
2018-06-18T06:19:07.001Z,136
2018-06-18T06:20:12.153Z,112
2018-06-18T06:21:17.028Z,128
2018-06-18T06:22:22.820Z,128
2018-06-18T06:23:28.303Z,112
2018-06-18T06:24:33.806Z,136
2018-06-18T06:25:38.960Z,121
2018-06-18T06:26:44.136Z,104
2018-06-18T06:27:49.866Z,88
2018-06-18T06:28:55.299Z,72
2018-06-18T06:30:00.454Z,72
2018-06-18T06:31:05.851Z,104
2018-06-18T06:32:10.722Z,121
2018-06-18T06:33:15.874Z,121
2018-06-18T06:34:20.994Z,136
2018-06-18T06:35:25.575Z,121
2018-06-18T06:36:31.008Z,112
2018-06-18T06:37:36.475Z,112
2018-06-18T06:38:41.365Z,112
2018-06-18T06:39:47.048Z,121
2018-06-18T06:40:52.204Z,121
2018-06-18T06:41:57.659Z,104
2018-06-18T06:43:02.779Z,88
2018-06-18T06:44:07.671Z,88
2018-06-18T06:45:12.253Z,88
2018-06-18T06:46:17.655Z,88
2018-06-18T06:47:23.083Z,104
2018-06-18T06:48:28.704Z,88
2018-06-18T06:49:33.848Z,104
2018-06-18T06:50:39.006Z,112
2018-06-18T06:51:44.497Z,128
2018-06-18T06:52:49.657Z,128
2018-06-18T06:53:54.797Z,145
2018-06-18T06:55:00.505Z,161
2018-06-18T06:56:05.091Z,161
2018-06-18T06:57:09.985Z,136
2018-06-18T06:58:15.100Z,161
2018-06-18T06:59:19.970Z,145
2018-06-18T07:00:23.712Z,145
2018-06-18T07:01:28.869Z,128
2018-06-18T07:02:34.013Z,121
2018-06-18T07:03:39.570Z,104
2018-06-18T07:04:44.928Z,104
2018-06-18T07:05:50.086Z,104
2018-06-18T07:06:55.389Z,104
2018-06-18T07:08:00.663Z,121
2018-06-18T07:09:05.663Z,112
2018-06-18T07:10:11.066Z,128
2018-06-18T07:11:15.932Z,128
2018-06-18T07:12:21.368Z,128
2018-06-18T07:13:27.397Z,128
2018-06-18T07:14:32.788Z,128
2018-06-18T07:15:38.292Z,128
2018-06-18T07:16:43.439Z,128
2018-06-18T07:17:48.738Z,145
2018-06-18T07:18:53.855Z,152
2018-06-18T07:19:59.492Z,152
2018-06-18T07:21:04.383Z,161
2018-06-18T07:22:09.506Z,152
2018-06-18T07:23:14.980Z,152
2018-06-18T07:24:20.164Z,152
2018-06-18T07:25:25.689Z,152
2018-06-18T07:26:31.026Z,152
2018-06-18T07:27:36.432Z,169
2018-06-18T07:28:41.903Z,169
2018-06-18T07:29:46.768Z,169
2018-06-18T07:30:52.887Z,169
2018-06-18T07:31:58.116Z,152
2018-06-18T07:33:03.268Z,152
2018-06-18T07:34:08.527Z,136
2018-06-18T07:35:13.684Z,161
2018-06-18T07:36:18.846Z,161
2018-06-18T07:37:24.655Z,152
2018-06-18T07:38:29.846Z,136
2018-06-18T07:39:35.082Z,161
2018-06-18T07:40:39.941Z,161
2018-06-18T07:41:45.379Z,136
2018-06-18T07:42:50.573Z,136
2018-06-18T07:43:55.992Z,136
2018-06-18T07:45:01.290Z,161
2018-06-18T07:46:06.973Z,161
2018-06-18T07:47:11.575Z,152
2018-06-18T07:48:16.459Z,152
2018-06-18T07:49:21.899Z,152
2018-06-18T07:50:26.822Z,152
2018-06-18T07:51:32.583Z,152
2018-06-18T07:52:37.774Z,152
2018-06-18T07:53:42.933Z,152
2018-06-18T07:54:48.430Z,161
2018-06-18T07:55:53.879Z,161
2018-06-18T07:56:59.441Z,161
2018-06-18T07:58:04.954Z,145
2018-06-18T07:59:09.820Z,128
2018-06-18T08:00:14.970Z,128
2018-06-18T08:01:20.120Z,145
2018-06-18T08:02:25.190Z,145
2018-06-18T08:03:30.932Z,145
2018-06-18T08:04:36.118Z,145
2018-06-18T08:05:41.560Z,128
2018-06-18T08:06:46.969Z,112
2018-06-18T08:07:52.126Z,112
2018-06-18T08:08:57.275Z,128
2018-06-18T08:10:02.444Z,128
2018-06-18T08:11:07.614Z,128
2018-06-18T08:12:13.063Z,128
2018-06-18T08:13:18.323Z,112
2018-06-18T08:14:23.478Z,121
2018-06-18T08:15:28.656Z,112
2018-06-18T08:16:33.821Z,145
2018-06-18T08:17:39.312Z,128
2018-06-18T08:18:45.097Z,128
2018-06-18T08:19:49.686Z,145
2018-06-18T08:20:54.564Z,145
2018-06-18T08:22:00.377Z,152
2018-06-18T08:23:05.526Z,169
2018-06-18T08:24:10.684Z,169
2018-06-18T08:25:16.017Z,185
2018-06-18T08:26:21.452Z,185
2018-06-18T08:27:26.564Z,185
2018-06-18T08:28:31.453Z,169
2018-06-18T08:29:36.605Z,169
2018-06-18T08:30:41.880Z,169
2018-06-18T08:31:47.035Z,169
2018-06-18T08:32:51.894Z,152
2018-06-18T08:33:57.010Z,136
2018-06-18T08:35:01.882Z,169
2018-06-18T08:36:06.761Z,169
2018-06-18T08:37:11.886Z,152
2018-06-18T08:38:17.320Z,152
2018-06-18T08:39:22.631Z,169
2018-06-18T08:40:28.677Z,152
2018-06-18T08:41:33.830Z,169
2018-06-18T08:42:39.335Z,169
2018-06-18T08:43:44.492Z,201
2018-06-18T08:44:49.378Z,192
2018-06-18T08:45:55.111Z,209
2018-06-18T08:47:00.295Z,209
2018-06-18T08:48:05.164Z,225
2018-06-18T08:49:10.703Z,241
2018-06-18T08:50:16.004Z,216
2018-06-18T08:51:21.447Z,216
2018-06-18T08:52:27.000Z,216
2018-06-18T08:53:32.144Z,216
2018-06-18T08:54:37.561Z,216
2018-06-18T08:55:42.432Z,233
2018-06-18T08:56:47.876Z,282
2018-06-18T08:57:53.423Z,282
2018-06-18T08:58:58.703Z,249
2018-06-18T09:00:03.557Z,233
2018-06-18T09:01:09.129Z,225
2018-06-18T09:02:14.284Z,216
2018-06-18T09:03:19.518Z,241
2018-06-18T09:04:24.927Z,209
2018-06-18T09:05:29.286Z,209
2018-06-18T09:06:34.592Z,176
2018-06-18T09:07:39.808Z,176
2018-06-18T09:08:44.970Z,209
2018-06-18T09:09:50.123Z,241
2018-06-18T09:10:55.288Z,249
2018-06-18T09:12:00.178Z,257
2018-06-18T09:13:05.423Z,257
2018-06-18T09:14:10.509Z,273
2018-06-18T09:15:15.659Z,273
2018-06-18T09:16:21.072Z,289
2018-06-18T09:17:25.927Z,280
2018-06-18T09:18:31.481Z,297
2018-06-18T09:19:36.924Z,297
2018-06-18T09:20:42.377Z,297
2018-06-18T09:21:48.062Z,321
2018-06-18T09:22:53.217Z,321
2018-06-18T09:23:58.644Z,321
2018-06-18T09:25:03.903Z,337
2018-06-18T09:26:08.769Z,330
2018-06-18T09:27:13.933Z,330
2018-06-18T09:28:19.628Z,313
2018-06-18T09:29:24.506Z,273
2018-06-18T09:30:29.077Z,257
2018-06-18T09:31:33.947Z,289
2018-06-18T09:32:39.861Z,297
2018-06-18T09:33:45.947Z,280
2018-06-18T09:34:51.105Z,257
2018-06-18T09:35:56.547Z,240
2018-06-18T09:37:01.678Z,273
2018-06-18T09:38:06.548Z,289
2018-06-18T09:39:11.438Z,289
2018-06-18T09:40:17.249Z,289
2018-06-18T09:41:22.739Z,289
2018-06-18T09:42:28.073Z,273
2018-06-18T09:43:33.528Z,289
2018-06-18T09:44:38.996Z,289
2018-06-18T09:45:43.964Z,297
2018-06-18T09:46:48.865Z,313
2018-06-18T09:47:54.023Z,297
2018-06-18T09:48:59.744Z,297
2018-06-18T09:50:04.871Z,297
2018-06-18T09:51:10.116Z,330
2018-06-18T09:52:15.572Z,321
2018-06-18T09:53:20.473Z,337
2018-06-18T09:54:40.654Z,370
2018-06-18T09:55:45.682Z,361
2018-06-18T09:56:50.892Z,377
2018-06-18T09:57:55.735Z,353
2018-06-18T09:59:01.243Z,337
2018-06-18T10:00:05.834Z,353
2018-06-18T10:01:10.955Z,353
2018-06-18T10:02:16.241Z,370
2018-06-18T10:03:21.769Z,361
2018-06-18T10:04:41.921Z,280
2018-06-18T10:05:46.824Z,273
2018-06-18T10:06:51.969Z,224
2018-06-18T10:07:57.318Z,249
2018-06-18T10:09:02.485Z,233
2018-06-18T10:10:07.339Z,216
2018-06-18T10:11:12.779Z,209
2018-06-18T10:12:18.230Z,209
2018-06-18T10:13:23.460Z,192
2018-06-18T10:14:28.432Z,192
2018-06-18T10:15:34.084Z,176
2018-06-18T10:16:39.916Z,185
2018-06-18T10:17:45.358Z,169
2018-06-18T10:18:50.902Z,152
2018-06-18T10:19:55.783Z,136
2018-06-18T10:21:00.954Z,145
2018-06-18T10:22:06.204Z,128
2018-06-18T10:23:11.077Z,128
2018-06-18T10:24:16.831Z,145
2018-06-18T10:25:22.825Z,145
2018-06-18T10:26:27.691Z,152
2018-06-18T10:27:33.129Z,185
2018-06-18T10:28:38.013Z,169
2018-06-18T10:29:43.405Z,136
2018-06-18T10:30:48.812Z,136
2018-06-18T10:31:54.247Z,169
2018-06-18T10:32:59.414Z,192
2018-06-18T10:34:04.547Z,216
2018-06-18T10:35:09.425Z,249
2018-06-18T10:36:14.017Z,266
2018-06-18T10:37:19.424Z,257
2018-06-18T10:38:24.856Z,289
2018-06-18T10:39:30.545Z,297
2018-06-18T10:40:35.445Z,330
2018-06-18T10:41:40.617Z,337
2018-06-18T10:42:46.293Z,370
2018-06-18T10:43:51.464Z,313
2018-06-18T10:44:56.900Z,313
2018-06-18T10:46:02.585Z,330
2018-06-18T10:47:07.839Z,313
2018-06-18T10:48:13.208Z,313
2018-06-18T10:49:18.604Z,313
2018-06-18T10:50:24.080Z,313
2018-06-18T10:51:30.078Z,313
2018-06-18T10:52:35.724Z,346
2018-06-18T10:53:41.161Z,313
2018-06-18T10:54:46.376Z,322
2018-06-18T10:55:51.550Z,337
2018-06-18T10:56:57.194Z,313
2018-06-18T10:58:02.624Z,313
2018-06-18T10:59:07.502Z,346
2018-06-18T11:00:12.945Z,449
2018-06-18T11:01:18.190Z,362
2018-06-18T11:02:22.506Z,346
2018-06-18T11:03:27.458Z,353
2018-06-18T11:04:32.914Z,441
2018-06-18T11:05:38.436Z,370
2018-06-18T11:06:44.177Z,441
2018-06-18T11:07:48.769Z,456
2018-06-18T11:08:53.945Z,321
2018-06-18T11:09:59.221Z,321
2018-06-18T11:11:03.745Z,288
2018-06-18T11:12:09.189Z,313
2018-06-18T11:13:14.310Z,321
2018-06-18T11:14:19.815Z,297
2018-06-18T11:15:25.143Z,280
2018-06-18T11:16:31.911Z,224
2018-06-18T11:17:38.088Z,176
2018-06-18T11:18:43.518Z,169
2018-06-18T11:19:48.993Z,152
2018-06-18T11:20:54.430Z,152
2018-06-18T11:21:59.957Z,169
2018-06-18T11:23:05.395Z,185
2018-06-18T11:24:10.272Z,192
2018-06-18T11:25:16.384Z,209
2018-06-18T11:26:21.636Z,241
2018-06-18T11:27:27.021Z,249
2018-06-18T11:28:32.569Z,266
2018-06-18T11:29:37.745Z,233
2018-06-18T11:30:43.249Z,233
2018-06-18T11:31:47.856Z,216
2018-06-18T11:32:52.771Z,216
2018-06-18T11:33:58.280Z,225
2018-06-18T11:35:03.430Z,209
2018-06-18T11:36:08.588Z,176
2018-06-18T11:37:14.305Z,192
2018-06-18T11:38:19.745Z,216
2018-06-18T11:39:27.113Z,266
2018-06-18T11:40:31.903Z,257
2018-06-18T11:41:37.192Z,266
2018-06-18T11:42:42.580Z,266
2018-06-18T11:43:48.248Z,240
2018-06-18T11:44:53.113Z,257
2018-06-18T11:45:58.442Z,257
2018-06-18T11:47:03.034Z,273
2018-06-18T11:48:08.309Z,280
2018-06-18T11:49:13.622Z,330
2018-06-18T11:50:19.200Z,337
2018-06-18T11:52:44.685Z,297
2018-06-18T11:53:50.183Z,280
2018-06-18T11:54:55.877Z,297
2018-06-18T11:56:01.406Z,297
2018-06-18T11:57:05.430Z,330
2018-06-18T11:58:10.280Z,321
2018-06-18T11:59:15.957Z,321
2018-06-18T12:00:20.841Z,313
2018-06-18T12:01:26.608Z,313
2018-06-18T12:02:32.318Z,330
2018-06-18T12:03:37.857Z,313
2018-06-18T12:04:42.739Z,297
2018-06-18T12:05:48.115Z,280
2018-06-18T12:06:53.262Z,264
2018-06-18T12:07:58.423Z,264
2018-06-18T12:09:03.288Z,257
2018-06-18T12:10:08.749Z,240
2018-06-18T12:11:13.612Z,249
2018-06-18T12:12:18.768Z,257
2018-06-18T12:13:24.399Z,273
2018-06-18T12:14:29.273Z,240
2018-06-18T12:15:34.708Z,273
2018-06-18T12:16:40.259Z,257
2018-06-18T12:17:45.745Z,289
2018-06-18T12:18:51.178Z,306
2018-06-18T12:19:56.327Z,280
2018-06-18T12:21:01.213Z,306
2018-06-18T12:22:06.440Z,289
2018-06-18T12:23:11.319Z,280
2018-06-18T12:24:16.481Z,330
2018-06-18T12:25:22.021Z,346
2018-06-18T12:26:27.653Z,330
2018-06-18T12:27:33.158Z,280
2018-06-18T12:28:38.680Z,289
2018-06-18T12:29:44.111Z,289
2018-06-18T12:30:49.729Z,280
2018-06-18T12:31:55.174Z,313
2018-06-18T12:33:00.353Z,313
2018-06-18T12:34:06.025Z,313
2018-06-18T12:35:11.462Z,330
2018-06-18T12:36:17.142Z,313
2018-06-18T12:37:23.030Z,297
2018-06-18T12:38:28.181Z,280
2018-06-18T12:39:34.017Z,297
2018-06-18T12:40:39.226Z,280
2018-06-18T12:41:44.261Z,289
2018-06-18T12:42:49.610Z,289
2018-06-18T12:43:54.932Z,240
2018-06-18T12:45:00.379Z,209
2018-06-18T12:46:05.214Z,233
2018-06-18T12:47:09.802Z,233
2018-06-18T12:48:14.962Z,249
2018-06-18T12:49:20.370Z,233
2018-06-18T12:50:25.534Z,216
2018-06-18T12:51:30.850Z,249
2018-06-18T12:52:36.484Z,266
2018-06-18T12:53:41.928Z,249
2018-06-18T12:54:46.799Z,209
2018-06-18T12:55:52.452Z,192
2018-06-18T12:56:57.898Z,209
2018-06-18T12:58:02.325Z,225
2018-06-18T12:59:07.492Z,233
2018-06-18T13:00:12.361Z,233
2018-06-18T13:01:18.045Z,225
2018-06-18T13:02:23.430Z,192
2018-06-18T13:03:29.252Z,192
2018-06-18T13:04:34.988Z,192
2018-06-18T13:05:40.472Z,209
2018-06-18T13:06:45.791Z,192
2018-06-18T13:07:51.140Z,209
2018-06-18T13:08:55.882Z,209
2018-06-18T13:10:01.865Z,209
2018-06-18T13:11:07.483Z,192
2018-06-18T13:12:12.362Z,209
2018-06-18T13:13:17.758Z,209
2018-06-18T13:14:22.841Z,209
2018-06-18T13:15:28.042Z,192
2018-06-18T13:16:33.211Z,176
2018-06-18T13:17:38.816Z,201
2018-06-18T13:18:44.375Z,201
2018-06-18T13:19:48.963Z,192
2018-06-18T13:20:54.117Z,209
2018-06-18T13:21:59.442Z,241
2018-06-18T13:23:04.025Z,216
2018-06-18T13:24:08.900Z,249
2018-06-18T13:25:14.496Z,257
2018-06-18T13:26:19.576Z,289
2018-06-18T13:28:45.339Z,273
2018-06-18T13:29:50.497Z,257
2018-06-18T13:30:56.064Z,240
2018-06-18T13:32:01.217Z,266
2018-06-18T13:33:05.520Z,249
2018-06-18T13:34:10.976Z,216
2018-06-18T13:35:16.118Z,216
2018-06-18T13:36:21.263Z,233
2018-06-18T13:37:26.591Z,249
2018-06-18T13:38:32.038Z,266
2018-06-18T13:39:37.602Z,216
2018-06-18T13:40:43.547Z,216
2018-06-18T13:41:48.908Z,216
2018-06-18T13:42:54.058Z,249
2018-06-18T13:43:59.531Z,289
2018-06-18T13:45:03.831Z,337
2018-06-18T13:46:09.311Z,386
2018-06-18T13:47:14.343Z,427
2018-06-18T13:48:19.852Z,427
2018-06-18T13:49:25.590Z,410
2018-06-18T13:50:30.657Z,377
2018-06-18T13:51:36.151Z,361
2018-06-18T13:52:41.556Z,401
2018-06-18T13:53:47.603Z,370
2018-06-18T13:54:53.284Z,386
2018-06-18T13:55:58.729Z,321
2018-06-18T13:57:03.610Z,313
2018-06-18T13:58:08.749Z,289
2018-06-18T13:59:13.899Z,240
2018-06-18T14:00:19.353Z,264
2018-06-18T14:01:24.961Z,216
2018-06-18T14:02:30.136Z,233
2018-06-18T14:03:35.638Z,233
2018-06-18T14:04:40.803Z,216
2018-06-18T14:05:46.241Z,225
2018-06-18T14:06:51.365Z,249
2018-06-18T14:07:56.253Z,257
2018-06-18T14:09:01.403Z,257
2018-06-18T14:10:06.627Z,216
2018-06-18T14:11:11.787Z,192
2018-06-18T14:12:17.231Z,192
2018-06-18T14:13:22.072Z,176
2018-06-18T14:14:27.668Z,209
2018-06-18T14:15:32.796Z,209
2018-06-18T14:16:37.942Z,225
2018-06-18T14:17:42.824Z,233
2018-06-18T14:18:47.949Z,266
2018-06-18T14:19:53.175Z,249
2018-06-18T14:20:58.785Z,233
2018-06-18T14:22:03.901Z,225
2018-06-18T14:23:08.805Z,192
2018-06-18T14:24:13.958Z,176
2018-06-18T14:25:19.256Z,185
2018-06-18T14:26:24.896Z,169
2018-06-18T14:27:30.021Z,169
2018-06-18T14:28:35.175Z,185
2018-06-18T14:29:40.043Z,192
2018-06-18T14:30:44.892Z,225
2018-06-18T14:31:50.044Z,225
2018-06-18T14:32:55.201Z,225
2018-06-18T14:34:00.897Z,209
2018-06-18T14:35:06.055Z,225
2018-06-18T14:36:11.007Z,233
2018-06-18T14:37:16.482Z,249
2018-06-18T14:38:21.642Z,249
2018-06-18T14:39:27.634Z,233
2018-06-18T14:40:33.065Z,249
2018-06-18T14:41:38.247Z,266
2018-06-18T14:42:43.987Z,257
2018-06-18T14:43:49.423Z,273
2018-06-18T14:44:54.369Z,257
2018-06-18T14:46:00.071Z,266
2018-06-18T14:47:05.383Z,249
2018-06-18T14:48:10.725Z,216
2018-06-18T14:49:16.457Z,225
2018-06-18T14:50:21.611Z,209
2018-06-18T14:51:27.141Z,176
2018-06-18T14:52:32.444Z,185
2018-06-18T14:53:37.924Z,169
2018-06-18T14:54:43.606Z,161
2018-06-18T14:55:48.967Z,128
2018-06-18T14:56:54.132Z,136
2018-06-18T14:57:59.491Z,121
2018-06-18T14:59:04.085Z,121
2018-06-18T15:00:09.249Z,121
2018-06-18T15:01:15.054Z,128
2018-06-18T15:02:20.203Z,145
2018-06-18T15:03:40.103Z,145
2018-06-18T15:04:45.690Z,161
2018-06-18T15:05:51.042Z,176
2018-06-18T15:06:56.747Z,185
2018-06-18T15:08:01.646Z,201
2018-06-18T15:09:07.181Z,185
2018-06-18T15:10:13.580Z,169
2018-06-18T15:11:18.769Z,169
2018-06-18T15:12:23.920Z,185
2018-06-18T15:13:29.752Z,185
2018-06-18T15:14:35.633Z,152
2018-06-18T15:15:41.859Z,161
2018-06-18T15:16:47.692Z,161
2018-06-18T15:17:52.282Z,152
2018-06-18T15:18:58.064Z,169
2018-06-18T15:20:02.646Z,169
2018-06-18T15:21:07.512Z,169
2018-06-18T15:22:13.077Z,185
2018-06-18T15:23:17.708Z,169
2018-06-18T15:24:23.154Z,145